This is the latest recevied weather packets stored in our database for station/object YO8SDE-8. If no packets are shown the sender has not sent any weather packets the latest 1 day(s).
| Time | Temp. | Humidity | Pressure | Rain* | Wind** | Luminosity | Snow |
|---|---|---|---|---|---|---|---|
| 1778103658 | 15.56° C | 56% | 1000.8 hPa | 0 mm | - | - | - |
| 1778103358 | 15.56° C | 56% | 1000.7 hPa | 0 mm | - | - | - |
| 1778103058 | 16.11° C | 55% | 1000.7 hPa | 0 mm | - | - | - |
| 1778102758 | 16.67° C | 54% | 1000.5 hPa | 0 mm | - | - | - |
| 1778102458 | 16.67° C | 53% | 1000.6 hPa | 0 mm | - | - | - |
| 1778101258 | 16.67° C | 53% | 1000.5 hPa | 0 mm | - | - | - |
| 1778100658 | 17.22° C | 51% | 1000.4 hPa | 0 mm | - | - | - |
| 1778099158 | 18.89° C | 45% | 1000.1 hPa | 0 mm | - | - | - |
| 1778098258 | 19.44° C | 44% | 1000.1 hPa | 0 mm | - | - | - |
| 1778096458 | 19.44° C | 44% | 1000 hPa | 0 mm | - | - | - |
| 1778086258 | 24.44° C | 33% | 998.9 hPa | 0 mm | - | - | - |
| 1778085058 | 25.56° C | 30% | 998.9 hPa | 0 mm | - | - | - |
| 1778060159 | 31.67° C | 35% | 1000.8 hPa | 0 mm | - | - | - |
| 1778059559 | 31.11° C | 35% | 1001 hPa | 0 mm | - | - | - |
| 1778059259 | 31.11° C | 36% | 1000.9 hPa | 0 mm | - | - | - |
| 1778058059 | 30° C | 36% | 1001.1 hPa | 0 mm | - | - | - |
| 1778057759 | 29.44° C | 37% | 1001.1 hPa | 0 mm | - | - | - |
| 1778057459 | 29.44° C | 37% | 1001.2 hPa | 0 mm | - | - | - |
| 1778057159 | 28.89° C | 38% | 1001.1 hPa | 0 mm | - | - | - |
| 1778056859 | 28.89° C | 38% | 1001.1 hPa | 0 mm | - | - | - |
| 1778056559 | 28.89° C | 38% | 1001.2 hPa | 0 mm | - | - | - |
| 1778056259 | 28.33° C | 39% | 1001.2 hPa | 0 mm | - | - | - |
| 1778055959 | 27.78° C | 39% | 1001.2 hPa | 0 mm | - | - | - |
| 1778055659 | 27.22° C | 40% | 1001.2 hPa | 0 mm | - | - | - |
| 1778055359 | 26.67° C | 41% | 1001.4 hPa | 0 mm | - | - | - |
* Rain latest hour (hover to see other rain measurements)
** Current wind speed in m/s (hover to see current wind gust speed)